Baileyton, Tennessee
Current Conditions -  °F | °C
As of 4:53 AM on Tuesday 21 Oct 2014 (Local Time) from KTRI Reporting Station
Light Rain Light Rain  
Wind Chill: 48°   Ceiling: 3100
Heat Index: 48°   Visibility: 6mi
Dew Point: 47°   Wind: 0mph
Humidity: 96%   Direction: NA
Pressure: 29.98"   Gusts: NA
Location:  36.1774°N, 82.8035°W
Report Text: KTRI 210853Z 00000KT 6SM -RA BR BKN031 OVC080 09/08 A2998 RMK AO2 RAB45 SLP138 P0000 60000 T00890083 55005
Loading
Personal Weather Stations






























Interactive Weather Map
Tropical Storm Tracking
New forecast layout! Learn more

10-Day Weather Forecast

Advertisements
Track Severe Weather on mobile